Time,TemperatureF,DewpointF,PressureIn,WindDirection,WindDirectionDegrees,WindSpeedMPH,WindSpeedGustMPH,Humidity,HourlyPrecipIn,Conditions,Clouds,dailyrainin,SoftwareType,DateUTC
2013-02-11 00:02:00,61.0,60.0,29.92,West,276,7.0,19.0,97,0.00,,,0.00,,2013-02-11 06:02:00,
2013-02-11 00:11:00,61.0,60.0,29.92,West,276,7.0,19.0,97,0.00,,,0.00,,2013-02-11 06:11:00,
2013-02-11 00:21:00,61.0,60.0,29.92,WSW,252,11.0,17.0,97,0.00,,,0.72,,2013-02-11 06:21:00,
2013-02-11 00:32:00,61.0,60.0,29.93,West,262,6.0,9.0,97,0.00,,,0.72,,2013-02-11 06:32:00,
2013-02-11 00:42:00,61.0,60.0,29.94,West,260,4.0,6.0,98,0.00,,,0.72,,2013-02-11 06:42:00,
2013-02-11 00:52:00,61.0,60.0,29.94,West,260,4.0,6.0,98,0.00,,,0.72,,2013-02-11 06:52:00,
2013-02-11 01:01:00,61.0,60.0,29.96,West,259,5.0,8.0,98,0.00,,,0.72,,2013-02-11 07:01:00,
2013-02-11 01:11:00,61.0,60.0,29.96,West,260,6.0,10.0,98,0.00,,,0.72,,2013-02-11 07:11:00,
2013-02-11 01:21:00,61.0,60.0,29.96,West,260,6.0,10.0,98,0.00,,,0.72,,2013-02-11 07:21:00,
2013-02-11 01:32:00,61.0,60.0,29.97,WSW,238,5.0,7.0,98,0.00,,,0.72,,2013-02-11 07:32:00,
2013-02-11 01:41:00,61.0,60.0,29.97,WSW,250,4.0,10.0,98,0.00,,,0.72,,2013-02-11 07:41:00,
2013-02-11 01:52:00,61.0,60.0,29.97,WSW,250,4.0,10.0,98,0.00,,,0.72,,2013-02-11 07:52:00,
2013-02-11 02:01:00,61.0,60.0,29.97,SW,226,2.0,8.0,98,0.00,,,0.72,,2013-02-11 08:01:00,
2013-02-11 02:11:00,61.0,60.0,29.98,WSW,242,1.0,3.0,98,0.01,,,0.72,,2013-02-11 08:11:00,
2013-02-11 02:21:00,61.0,60.0,29.98,WSW,242,1.0,3.0,98,0.01,,,0.72,,2013-02-11 08:21:00,
2013-02-11 02:31:00,61.0,60.0,29.98,SW,219,0.0,1.0,98,0.01,,,0.72,,2013-02-11 08:31:00,
2013-02-11 02:42:00,60.0,59.0,29.98,South,173,0.0,0.0,98,0.01,,,0.72,,2013-02-11 08:42:00,
2013-02-11 02:52:00,60.0,59.0,29.98,South,173,0.0,0.0,98,0.01,,,0.72,,2013-02-11 08:52:00,
2013-02-11 03:01:00,60.0,60.0,29.98,WNW,288,1.0,2.0,99,0.01,,,0.72,,2013-02-11 09:01:00,
2013-02-11 03:12:00,60.0,60.0,29.98,WNW,288,1.0,2.0,99,0.01,,,0.72,,2013-02-11 09:12:00,
2013-02-11 03:21:00,60.0,60.0,29.98,WSW,252,1.0,1.0,99,0.01,,,0.72,,2013-02-11 09:21:00,
2013-02-11 03:31:00,60.0,60.0,29.97,NW,323,0.0,1.0,99,0.01,,,0.72,,2013-02-11 09:31:00,
2013-02-11 03:41:00,60.0,60.0,29.97,NW,323,0.0,1.0,99,0.01,,,0.72,,2013-02-11 09:41:00,
2013-02-11 03:52:00,59.0,58.0,29.96,WNW,301,1.0,0.0,98,0.01,,,0.72,,2013-02-11 09:52:00,
2013-02-11 04:01:00,60.0,59.0,29.97,WNW,291,2.0,6.0,97,0.01,,,0.72,,2013-02-11 10:01:00,
2013-02-11 04:11:00,60.0,59.0,29.97,WNW,291,2.0,6.0,97,0.01,,,0.72,,2013-02-11 10:11:00,
2013-02-11 04:21:00,60.0,59.0,29.97,WNW,300,3.0,7.0,96,0.00,,,0.72,,2013-02-11 10:21:00,
2013-02-11 04:31:00,60.0,58.0,29.98,West,270,4.0,5.0,94,0.00,,,0.72,,2013-02-11 10:31:00,
2013-02-11 04:41:00,60.0,58.0,29.98,West,270,4.0,5.0,94,0.00,,,0.72,,2013-02-11 10:41:00,
2013-02-11 04:52:00,60.0,58.0,29.99,NW,321,6.0,10.0,93,0.00,,,0.72,,2013-02-11 10:52:00,
2013-02-11 05:01:00,59.0,57.0,29.99,West,281,4.0,7.0,94,0.00,,,0.72,,2013-02-11 11:01:00,
2013-02-11 05:11:00,59.0,57.0,29.99,West,281,4.0,7.0,94,0.00,,,0.72,,2013-02-11 11:11:00,
2013-02-11 05:22:00,59.0,58.0,30.00,NNW,330,3.0,7.0,95,0.00,,,0.72,,2013-02-11 11:22:00,
2013-02-11 05:32:00,59.0,58.0,30.00,West,260,3.0,5.0,95,0.00,,,0.72,,2013-02-11 11:32:00,
2013-02-11 05:42:00,59.0,58.0,30.02,WNW,291,4.0,6.0,95,0.00,,,0.72,,2013-02-11 11:42:00,
2013-02-11 05:52:00,59.0,58.0,30.02,WNW,291,4.0,6.0,95,0.00,,,0.72,,2013-02-11 11:52:00,
2013-02-11 06:03:00,59.0,58.0,30.02,WNW,298,1.0,5.0,95,0.00,,,0.72,,2013-02-11 12:03:00,
2013-02-11 06:12:00,59.0,58.0,30.02,WNW,298,1.0,5.0,95,0.00,,,0.72,,2013-02-11 12:12:00,
2013-02-11 06:22:00,59.0,57.0,30.04,WNW,294,5.0,8.0,92,0.00,,,0.72,,2013-02-11 12:22:00,
2013-02-11 06:32:00,59.0,56.0,30.03,NNW,333,1.0,8.0,90,0.00,,,0.72,,2013-02-11 12:32:00,
2013-02-11 06:42:00,58.0,55.0,30.02,NNW,343,1.0,7.0,90,0.00,,,0.72,,2013-02-11 12:42:00,
2013-02-11 06:52:00,58.0,55.0,30.02,NNW,343,1.0,7.0,90,0.00,,,0.72,,2013-02-11 12:52:00,
2013-02-11 07:01:00,58.0,55.0,30.03,NNE,13,4.0,11.0,90,0.00,,,0.72,,2013-02-11 13:01:00,
2013-02-11 07:11:00,58.0,55.0,30.04,North,354,2.0,5.0,90,0.00,,,0.72,,2013-02-11 13:11:00,
2013-02-11 07:22:00,58.0,55.0,30.04,North,354,2.0,5.0,90,0.00,,,0.72,,2013-02-11 13:22:00,
2013-02-11 07:32:00,57.0,54.0,30.06,North,352,2.0,8.0,90,0.00,,,0.72,,2013-02-11 13:32:00,
2013-02-11 07:42:00,57.0,54.0,30.06,North,352,2.0,8.0,90,0.00,,,0.72,,2013-02-11 13:42:00,
2013-02-11 07:52:00,57.0,54.0,30.05,NW,315,0.0,3.0,89,0.00,,,0.72,,2013-02-11 13:52:00,
2013-02-11 08:01:00,57.0,54.0,30.06,NW,325,0.0,3.0,89,0.00,,,0.72,,2013-02-11 14:01:00,
2013-02-11 08:11:00,57.0,54.0,30.06,NW,325,0.0,3.0,89,0.00,,,0.72,,2013-02-11 14:11:00,
2013-02-11 08:22:00,57.0,53.0,30.07,West,266,1.0,3.0,86,0.00,,,0.72,,2013-02-11 14:22:00,
2013-02-11 08:32:00,57.0,53.0,30.08,WSW,257,1.0,2.0,85,0.00,,,0.72,,2013-02-11 14:32:00,
2013-02-11 08:42:00,57.0,52.0,30.08,WNW,283,0.0,3.0,84,0.00,,,0.72,,2013-02-11 14:42:00,
2013-02-11 08:53:00,57.0,52.0,30.08,WNW,283,0.0,3.0,84,0.00,,,0.72,,2013-02-11 14:53:00,
2013-02-11 09:01:00,57.0,52.0,30.09,West,270,1.0,3.0,83,0.00,,,0.72,,2013-02-11 15:01:00,
2013-02-11 09:11:00,57.0,52.0,30.09,West,270,1.0,3.0,83,0.00,,,0.72,,2013-02-11 15:11:00,
2013-02-11 09:22:00,56.0,52.0,30.09,SW,231,2.0,4.0,85,0.00,,,0.72,,2013-02-11 15:22:00,
2013-02-11 09:32:00,56.0,51.0,30.08,SW,235,1.0,3.0,83,0.00,,,0.72,,2013-02-11 15:32:00,
2013-02-11 09:42:00,56.0,51.0,30.09,NW,309,0.0,2.0,84,0.00,,,0.72,,2013-02-11 15:42:00,
2013-02-11 09:52:00,56.0,51.0,30.09,NW,309,0.0,2.0,84,0.00,,,0.72,,2013-02-11 15:52:00,
2013-02-11 10:02:00,57.0,50.0,30.09,NNW,333,3.0,5.0,78,0.00,,,0.72,,2013-02-11 16:02:00,
2013-02-11 10:11:00,56.0,47.0,30.08,North,10,2.0,8.0,73,0.00,,,0.72,,2013-02-11 16:11:00,
2013-02-11 10:22:00,56.0,47.0,30.08,North,10,2.0,8.0,73,0.00,,,0.72,,2013-02-11 16:22:00,
2013-02-11 10:32:00,56.0,47.0,30.13,WNW,294,3.0,7.0,73,0.00,,,0.72,,2013-02-11 16:32:00,
2013-02-11 10:42:00,56.0,47.0,30.13,NW,316,0.0,5.0,72,0.00,,,0.72,,2013-02-11 16:42:00,
2013-02-11 10:52:00,56.0,47.0,30.13,NW,316,0.0,5.0,72,0.00,,,0.72,,2013-02-11 16:52:00,
2013-02-11 11:01:00,56.0,47.0,30.12,NNW,336,0.0,0.0,72,0.00,,,0.72,,2013-02-11 17:01:00,
2013-02-11 11:11:00,56.0,47.0,30.12,NNW,336,0.0,0.0,72,0.00,,,0.72,,2013-02-11 17:11:00,
2013-02-11 11:21:00,56.0,48.0,30.12,NNE,27,2.0,4.0,74,0.00,,,0.72,,2013-02-11 17:21:00,
2013-02-11 11:32:00,56.0,46.0,30.12,NNW,329,4.0,8.0,70,0.00,,,0.72,,2013-02-11 17:32:00,
2013-02-11 11:42:00,56.0,46.0,30.12,NNW,329,4.0,8.0,70,0.00,,,0.72,,2013-02-11 17:42:00,
2013-02-11 11:53:00,55.0,43.0,30.13,North,1,3.0,7.0,65,0.00,,,0.72,,2013-02-11 17:53:00,
2013-02-11 12:01:00,55.0,44.0,30.11,NW,319,0.0,7.0,67,0.00,,,0.72,,2013-02-11 18:01:00,
2013-02-11 12:11:00,55.0,44.0,30.11,NW,319,0.0,7.0,67,0.00,,,0.72,,2013-02-11 18:11:00,
2013-02-11 12:21:00,55.0,45.0,30.10,SW,226,0.0,5.0,68,0.00,,,0.72,,2013-02-11 18:21:00,
2013-02-11 12:32:00,55.0,43.0,30.10,WNW,284,0.0,4.0,65,0.00,,,0.72,,2013-02-11 18:32:00,
2013-02-11 12:42:00,55.0,42.0,30.10,NNW,346,0.0,6.0,61,0.00,,,0.72,,2013-02-11 18:42:00,
2013-02-11 12:53:00,55.0,42.0,30.10,NNW,346,0.0,6.0,61,0.00,,,0.72,,2013-02-11 18:53:00,
2013-02-11 13:02:00,55.0,43.0,30.11,NNW,342,2.0,5.0,65,0.00,,,0.72,,2013-02-11 19:02:00,
2013-02-11 13:11:00,54.0,40.0,30.10,North,8,5.0,8.0,60,0.00,,,0.72,,2013-02-11 19:11:00,
2013-02-11 13:21:00,54.0,40.0,30.10,North,8,5.0,8.0,60,0.00,,,0.72,,2013-02-11 19:21:00,
2013-02-11 13:32:00,55.0,42.0,30.10,NNW,345,1.0,4.0,62,0.00,,,0.72,,2013-02-11 19:32:00,
2013-02-11 13:41:00,55.0,42.0,30.10,NNW,345,1.0,4.0,62,0.00,,,0.72,,2013-02-11 19:41:00,
2013-02-11 13:51:00,54.0,40.0,30.09,NW,308,2.0,9.0,59,0.00,,,0.72,,2013-02-11 19:51:00,
2013-02-11 14:01:00,54.0,41.0,30.11,NW,319,0.0,8.0,61,0.00,,,0.72,,2013-02-11 20:01:00,
2013-02-11 14:11:00,54.0,40.0,30.08,WNW,300,0.0,5.0,59,0.00,,,0.72,,2013-02-11 20:11:00,
2013-02-11 14:21:00,54.0,40.0,30.08,WNW,300,0.0,5.0,59,0.00,,,0.72,,2013-02-11 20:21:00,
2013-02-11 14:32:00,54.0,42.0,30.09,North,3,1.0,4.0,63,0.00,,,0.72,,2013-02-11 20:32:00,
2013-02-11 14:42:00,54.0,42.0,30.09,NW,309,1.0,6.0,63,0.00,,,0.72,,2013-02-11 20:42:00,
2013-02-11 14:52:00,54.0,42.0,30.09,NW,309,1.0,6.0,63,0.00,,,0.72,,2013-02-11 20:52:00,
2013-02-11 15:02:00,54.0,43.0,30.08,North,8,4.0,6.0,65,0.00,,,0.72,,2013-02-11 21:02:00,
2013-02-11 15:11:00,54.0,43.0,30.08,NNE,14,3.0,8.0,66,0.00,,,0.72,,2013-02-11 21:11:00,
2013-02-11 15:21:00,54.0,43.0,30.08,NNE,14,3.0,8.0,66,0.00,,,0.72,,2013-02-11 21:21:00,
2013-02-11 15:32:00,54.0,44.0,30.07,North,359,4.0,7.0,69,0.00,,,0.72,,2013-02-11 21:32:00,
2013-02-11 15:42:00,54.0,44.0,30.08,WNW,293,0.0,4.0,69,0.00,,,0.72,,2013-02-11 21:42:00,
2013-02-11 15:52:00,54.0,44.0,30.08,WNW,293,0.0,4.0,69,0.00,,,0.72,,2013-02-11 21:52:00,
2013-02-11 16:01:00,54.0,44.0,30.08,NNE,18,0.0,5.0,70,0.00,,,0.72,,2013-02-11 22:01:00,
2013-02-11 16:11:00,54.0,44.0,30.07,NE,35,3.0,3.0,69,0.00,,,0.72,,2013-02-11 22:11:00,
2013-02-11 16:21:00,54.0,44.0,30.07,NE,35,3.0,3.0,69,0.00,,,0.72,,2013-02-11 22:21:00,
2013-02-11 16:32:00,53.0,41.0,30.07,North,0,1.0,4.0,63,0.00,,,0.72,,2013-02-11 22:32:00,
2013-02-11 16:42:00,53.0,41.0,30.07,North,0,1.0,4.0,63,0.00,,,0.72,,2013-02-11 22:42:00,
2013-02-11 16:52:00,53.0,41.0,30.07,NNE,27,2.0,3.0,64,0.00,,,0.72,,2013-02-11 22:52:00,
2013-02-11 17:01:00,53.0,42.0,30.07,NW,311,0.0,0.0,65,0.00,,,0.72,,2013-02-11 23:01:00,
2013-02-11 17:11:00,53.0,42.0,30.07,NW,311,0.0,0.0,65,0.00,,,0.72,,2013-02-11 23:11:00,
2013-02-11 17:21:00,53.0,42.0,30.08,NNW,329,0.0,0.0,66,0.00,,,0.72,,2013-02-11 23:21:00,
2013-02-11 17:32:00,53.0,43.0,30.06,NNW,329,0.0,0.0,69,0.00,,,0.72,,2013-02-11 23:32:00,
2013-02-11 17:42:00,53.0,43.0,30.06,NNW,329,0.0,0.0,69,0.00,,,0.72,,2013-02-11 23:42:00,
2013-02-11 17:52:00,52.0,43.0,30.08,WNW,297,0.0,2.0,72,0.00,,,0.72,,2013-02-11 23:52:00,
2013-02-11 18:01:00,51.0,43.0,30.08,WNW,290,0.0,3.0,75,0.00,,,0.72,,2013-02-12 00:01:00,
2013-02-11 18:11:00,51.0,43.0,30.08,WNW,290,0.0,3.0,75,0.00,,,0.72,,2013-02-12 00:11:00,
2013-02-11 18:22:00,51.0,45.0,30.08,West,280,0.0,0.0,81,0.00,,,0.72,,2013-02-12 00:22:00,
2013-02-11 18:32:00,50.0,45.0,30.08,West,280,0.0,0.0,84,0.00,,,0.72,,2013-02-12 00:32:00,
2013-02-11 18:42:00,50.0,45.0,30.08,West,280,0.0,0.0,84,0.00,,,0.72,,2013-02-12 00:42:00,
2013-02-11 18:52:00,50.0,46.0,30.07,West,280,0.0,0.0,85,0.00,,,0.72,,2013-02-12 00:52:00,
2013-02-11 19:01:00,49.0,45.0,30.06,West,280,0.0,0.0,87,0.00,,,0.72,,2013-02-12 01:01:00,
2013-02-11 19:11:00,49.0,45.0,30.06,West,280,0.0,0.0,87,0.00,,,0.72,,2013-02-12 01:11:00,
2013-02-11 19:21:00,49.0,46.0,30.07,West,280,0.0,0.0,88,0.00,,,0.72,,2013-02-12 01:21:00,
2013-02-11 19:32:00,49.0,46.0,30.08,West,280,0.0,0.0,89,0.00,,,0.72,,2013-02-12 01:32:00,
2013-02-11 19:42:00,48.0,45.0,30.08,West,280,0.0,0.0,90,0.00,,,0.72,,2013-02-12 01:42:00,
2013-02-11 19:52:00,48.0,45.0,30.08,West,280,0.0,0.0,90,0.00,,,0.72,,2013-02-12 01:52:00,
2013-02-11 20:01:00,49.0,45.0,30.08,NNE,15,0.0,3.0,85,0.00,,,0.72,,2013-02-12 02:01:00,
2013-02-11 20:11:00,49.0,45.0,30.08,NNE,15,0.0,0.0,85,0.00,,,0.72,,2013-02-12 02:11:00,
2013-02-11 20:21:00,49.0,45.0,30.08,NNE,15,0.0,0.0,85,0.00,,,0.72,,2013-02-12 02:21:00,
2013-02-11 20:31:00,49.0,45.0,30.07,NNE,15,0.0,0.0,86,0.00,,,0.72,,2013-02-12 02:31:00,
2013-02-11 20:41:00,49.0,45.0,30.07,NNE,15,0.0,0.0,86,0.00,,,0.72,,2013-02-12 02:41:00,
2013-02-11 20:52:00,48.0,45.0,30.10,West,276,2.0,2.0,90,0.00,,,0.72,,2013-02-12 02:52:00,
2013-02-11 21:02:00,48.0,42.0,30.16,NW,319,1.0,8.0,79,0.00,,,0.72,,2013-02-12 03:02:00,
2013-02-11 21:11:00,50.0,42.0,30.12,North,3,0.0,3.0,73,0.00,,,0.72,,2013-02-12 03:11:00,
2013-02-11 21:21:00,50.0,42.0,30.12,North,3,0.0,3.0,73,0.00,,,0.72,,2013-02-12 03:21:00,
2013-02-11 21:31:00,49.0,41.0,30.09,North,3,0.0,0.0,73,0.00,,,0.72,,2013-02-12 03:31:00,
2013-02-11 21:41:00,49.0,44.0,30.08,North,3,0.0,0.0,82,0.00,,,0.72,,2013-02-12 03:41:00,
2013-02-11 21:52:00,49.0,44.0,30.08,North,3,0.0,0.0,82,0.00,,,0.72,,2013-02-12 03:52:00,
2013-02-11 22:01:00,47.0,43.0,30.10,West,263,1.0,2.0,87,0.00,,,0.72,,2013-02-12 04:01:00,
2013-02-11 22:11:00,47.0,43.0,30.10,West,263,1.0,2.0,87,0.00,,,0.72,,2013-02-12 04:11:00,
2013-02-11 22:21:00,47.0,44.0,30.11,SW,228,0.0,1.0,89,0.00,,,0.72,,2013-02-12 04:21:00,
2013-02-11 22:31:00,47.0,44.0,30.11,SW,228,0.0,0.0,88,0.00,,,0.72,,2013-02-12 04:31:00,
2013-02-11 22:41:00,47.0,44.0,30.11,SW,228,0.0,0.0,88,0.00,,,0.72,,2013-02-12 04:41:00,
2013-02-11 22:52:00,47.0,44.0,30.11,SW,228,0.0,0.0,90,0.00,,,0.72,,2013-02-12 04:52:00,
2013-02-11 23:01:00,47.0,44.0,30.11,South,187,0.0,2.0,88,0.00,,,0.72,,2013-02-12 05:01:00,
2013-02-11 23:11:00,47.0,44.0,30.11,South,187,0.0,0.0,90,0.00,,,0.72,,2013-02-12 05:11:00,
2013-02-11 23:21:00,47.0,44.0,30.11,South,187,0.0,0.0,90,0.00,,,0.72,,2013-02-12 05:21:00,
2013-02-11 23:31:00,46.0,44.0,30.11,SSW,201,0.0,3.0,91,0.00,,,0.72,,2013-02-12 05:31:00,
2013-02-11 23:42:00,46.0,44.0,30.11,SSW,201,0.0,3.0,91,0.00,,,0.72,,2013-02-12 05:42:00,
2013-02-11 23:52:00,46.0,44.0,30.10,SW,236,2.0,3.0,94,0.00,,,0.72,,2013-02-12 05:52:00,